sensor_id;sensor_type;location;lat;lon;timestamp;P1;durP1;ratioP1;P2;durP2;ratioP2
69502;SDS011;56704;54.242;12.442;2023-03-19T00:02:18;31.97;;;15.73;;
69502;SDS011;56704;54.242;12.442;2023-03-19T00:04:46;35.67;;;18.77;;
69502;SDS011;56704;54.242;12.442;2023-03-19T00:07:13;30.23;;;17.50;;
69502;SDS011;56704;54.242;12.442;2023-03-19T00:09:41;33.92;;;18.75;;
69502;SDS011;56704;54.242;12.442;2023-03-19T00:12:07;36.13;;;19.02;;
69502;SDS011;56704;54.242;12.442;2023-03-19T00:14:36;37.30;;;19.63;;
69502;SDS011;56704;54.242;12.442;2023-03-19T00:17:02;34.95;;;18.23;;
69502;SDS011;56704;54.242;12.442;2023-03-19T00:19:29;37.78;;;19.70;;
69502;SDS011;56704;54.242;12.442;2023-03-19T00:21:57;34.83;;;19.00;;
69502;SDS011;56704;54.242;12.442;2023-03-19T00:24:23;39.45;;;18.90;;
69502;SDS011;56704;54.242;12.442;2023-03-19T00:26:50;36.00;;;18.73;;
69502;SDS011;56704;54.242;12.442;2023-03-19T00:29:17;42.90;;;20.88;;
69502;SDS011;56704;54.242;12.442;2023-03-19T00:31:43;42.80;;;20.73;;
69502;SDS011;56704;54.242;12.442;2023-03-19T00:34:10;45.80;;;21.38;;
69502;SDS011;56704;54.242;12.442;2023-03-19T00:36:37;46.22;;;22.70;;
69502;SDS011;56704;54.242;12.442;2023-03-19T00:39:05;50.17;;;22.87;;
69502;SDS011;56704;54.242;12.442;2023-03-19T00:41:32;51.22;;;23.05;;
69502;SDS011;56704;54.242;12.442;2023-03-19T00:43:59;55.25;;;23.45;;
69502;SDS011;56704;54.242;12.442;2023-03-19T00:46:26;57.10;;;24.30;;
69502;SDS011;56704;54.242;12.442;2023-03-19T00:48:52;61.95;;;26.40;;
69502;SDS011;56704;54.242;12.442;2023-03-19T00:51:20;52.70;;;24.07;;
69502;SDS011;56704;54.242;12.442;2023-03-19T00:53:47;61.10;;;25.70;;
69502;SDS011;56704;54.242;12.442;2023-03-19T00:56:15;57.35;;;24.30;;
69502;SDS011;56704;54.242;12.442;2023-03-19T00:58:43;61.72;;;25.15;;
69502;SDS011;56704;54.242;12.442;2023-03-19T01:01:10;58.40;;;23.67;;
69502;SDS011;56704;54.242;12.442;2023-03-19T01:03:38;57.83;;;23.87;;
69502;SDS011;56704;54.242;12.442;2023-03-19T01:06:05;53.17;;;23.00;;
69502;SDS011;56704;54.242;12.442;2023-03-19T01:08:32;51.15;;;23.67;;
69502;SDS011;56704;54.242;12.442;2023-03-19T01:11:03;57.13;;;23.27;;
69502;SDS011;56704;54.242;12.442;2023-03-19T01:13:32;49.42;;;20.45;;
69502;SDS011;56704;54.242;12.442;2023-03-19T01:15:58;49.00;;;22.43;;
69502;SDS011;56704;54.242;12.442;2023-03-19T01:18:25;56.60;;;24.52;;
69502;SDS011;56704;54.242;12.442;2023-03-19T01:20:52;57.28;;;22.90;;
69502;SDS011;56704;54.242;12.442;2023-03-19T01:23:18;50.05;;;21.58;;
69502;SDS011;56704;54.242;12.442;2023-03-19T01:25:45;45.90;;;21.95;;
69502;SDS011;56704;54.242;12.442;2023-03-19T01:28:11;38.17;;;20.10;;
69502;SDS011;56704;54.242;12.442;2023-03-19T01:30:39;41.15;;;20.27;;
69502;SDS011;56704;54.242;12.442;2023-03-19T01:33:06;43.15;;;21.35;;
69502;SDS011;56704;54.242;12.442;2023-03-19T01:35:32;40.45;;;19.90;;
69502;SDS011;56704;54.242;12.442;2023-03-19T01:37:59;42.50;;;21.27;;
69502;SDS011;56704;54.242;12.442;2023-03-19T01:40:26;41.20;;;19.17;;
69502;SDS011;56704;54.242;12.442;2023-03-19T01:42:53;40.33;;;19.77;;
69502;SDS011;56704;54.242;12.442;2023-03-19T01:48:07;35.35;;;18.50;;
69502;SDS011;56704;54.242;12.442;2023-03-19T01:50:44;41.28;;;20.15;;
69502;SDS011;56704;54.242;12.442;2023-03-19T01:53:14;40.80;;;19.17;;
69502;SDS011;56704;54.242;12.442;2023-03-19T01:55:44;43.35;;;19.75;;
69502;SDS011;56704;54.242;12.442;2023-03-19T01:58:11;48.38;;;23.02;;
69502;SDS011;56704;54.242;12.442;2023-03-19T02:00:38;47.25;;;21.85;;
69502;SDS011;56704;54.242;12.442;2023-03-19T02:03:07;47.63;;;23.02;;
69502;SDS011;56704;54.242;12.442;2023-03-19T02:05:35;45.60;;;21.17;;
69502;SDS011;56704;54.242;12.442;2023-03-19T02:08:05;47.60;;;23.23;;
69502;SDS011;56704;54.242;12.442;2023-03-19T02:10:33;45.30;;;22.75;;
69502;SDS011;56704;54.242;12.442;2023-03-19T02:13:02;37.15;;;18.88;;
69502;SDS011;56704;54.242;12.442;2023-03-19T02:15:28;39.72;;;21.00;;
69502;SDS011;56704;54.242;12.442;2023-03-19T02:17:56;35.67;;;17.73;;
69502;SDS011;56704;54.242;12.442;2023-03-19T02:20:24;40.22;;;19.67;;
69502;SDS011;56704;54.242;12.442;2023-03-19T02:22:57;36.42;;;19.52;;
69502;SDS011;56704;54.242;12.442;2023-03-19T02:25:34;38.30;;;19.15;;
69502;SDS011;56704;54.242;12.442;2023-03-19T02:28:06;36.67;;;19.42;;
69502;SDS011;56704;54.242;12.442;2023-03-19T02:30:35;36.53;;;19.53;;
69502;SDS011;56704;54.242;12.442;2023-03-19T02:33:02;37.80;;;19.08;;
69502;SDS011;56704;54.242;12.442;2023-03-19T02:35:30;38.63;;;19.13;;
69502;SDS011;56704;54.242;12.442;2023-03-19T02:37:59;35.75;;;18.20;;
69502;SDS011;56704;54.242;12.442;2023-03-19T02:40:28;32.33;;;17.00;;
69502;SDS011;56704;54.242;12.442;2023-03-19T02:42:59;31.87;;;16.20;;
69502;SDS011;56704;54.242;12.442;2023-03-19T02:45:28;35.33;;;17.88;;
69502;SDS011;56704;54.242;12.442;2023-03-19T02:47:55;37.67;;;18.60;;
69502;SDS011;56704;54.242;12.442;2023-03-19T02:50:22;35.88;;;16.58;;
69502;SDS011;56704;54.242;12.442;2023-03-19T02:52:49;33.90;;;17.92;;
69502;SDS011;56704;54.242;12.442;2023-03-19T02:55:16;40.53;;;18.40;;
69502;SDS011;56704;54.242;12.442;2023-03-19T02:57:43;36.53;;;18.17;;
69502;SDS011;56704;54.242;12.442;2023-03-19T03:00:10;39.22;;;19.27;;
69502;SDS011;56704;54.242;12.442;2023-03-19T03:02:39;38.22;;;18.33;;
69502;SDS011;56704;54.242;12.442;2023-03-19T03:05:06;40.35;;;20.05;;
69502;SDS011;56704;54.242;12.442;2023-03-19T03:07:33;43.63;;;19.77;;
69502;SDS011;56704;54.242;12.442;2023-03-19T03:10:00;42.00;;;19.98;;
69502;SDS011;56704;54.242;12.442;2023-03-19T03:12:26;46.10;;;22.67;;
69502;SDS011;56704;54.242;12.442;2023-03-19T03:14:53;43.53;;;22.33;;
69502;SDS011;56704;54.242;12.442;2023-03-19T03:17:20;44.58;;;22.20;;
69502;SDS011;56704;54.242;12.442;2023-03-19T03:19:48;43.27;;;19.30;;
69502;SDS011;56704;54.242;12.442;2023-03-19T03:22:14;34.22;;;17.50;;
69502;SDS011;56704;54.242;12.442;2023-03-19T03:24:41;42.83;;;21.83;;
69502;SDS011;56704;54.242;12.442;2023-03-19T03:27:08;40.65;;;20.35;;
69502;SDS011;56704;54.242;12.442;2023-03-19T03:29:34;40.13;;;20.80;;
69502;SDS011;56704;54.242;12.442;2023-03-19T03:32:01;42.77;;;21.17;;
69502;SDS011;56704;54.242;12.442;2023-03-19T03:34:28;39.35;;;20.00;;
69502;SDS011;56704;54.242;12.442;2023-03-19T03:36:56;45.00;;;22.10;;
69502;SDS011;56704;54.242;12.442;2023-03-19T03:39:22;40.80;;;20.30;;
69502;SDS011;56704;54.242;12.442;2023-03-19T03:41:49;36.60;;;19.52;;
69502;SDS011;56704;54.242;12.442;2023-03-19T03:44:15;39.43;;;19.07;;
69502;SDS011;56704;54.242;12.442;2023-03-19T03:46:42;40.13;;;20.65;;
69502;SDS011;56704;54.242;12.442;2023-03-19T03:49:08;36.47;;;19.00;;
69502;SDS011;56704;54.242;12.442;2023-03-19T03:51:35;31.23;;;16.52;;
69502;SDS011;56704;54.242;12.442;2023-03-19T03:54:03;36.88;;;20.02;;
69502;SDS011;56704;54.242;12.442;2023-03-19T03:56:30;39.50;;;18.23;;
69502;SDS011;56704;54.242;12.442;2023-03-19T03:58:57;38.15;;;18.17;;
69502;SDS011;56704;54.242;12.442;2023-03-19T04:01:23;35.95;;;18.10;;
69502;SDS011;56704;54.242;12.442;2023-03-19T04:03:50;36.80;;;18.75;;
69502;SDS011;56704;54.242;12.442;2023-03-19T04:06:17;36.65;;;19.38;;
69502;SDS011;56704;54.242;12.442;2023-03-19T04:08:46;37.00;;;21.23;;
69502;SDS011;56704;54.242;12.442;2023-03-19T04:11:14;32.10;;;15.85;;
69502;SDS011;56704;54.242;12.442;2023-03-19T04:13:41;40.33;;;19.20;;
69502;SDS011;56704;54.242;12.442;2023-03-19T04:16:08;37.38;;;19.60;;
69502;SDS011;56704;54.242;12.442;2023-03-19T04:18:35;39.25;;;19.15;;
69502;SDS011;56704;54.242;12.442;2023-03-19T04:21:03;39.13;;;19.83;;
69502;SDS011;56704;54.242;12.442;2023-03-19T04:23:30;41.80;;;21.48;;
69502;SDS011;56704;54.242;12.442;2023-03-19T04:25:57;38.97;;;19.40;;
69502;SDS011;56704;54.242;12.442;2023-03-19T04:28:25;40.83;;;20.02;;
69502;SDS011;56704;54.242;12.442;2023-03-19T04:30:51;37.35;;;17.95;;
69502;SDS011;56704;54.242;12.442;2023-03-19T04:33:18;34.70;;;18.17;;
69502;SDS011;56704;54.242;12.442;2023-03-19T04:35:44;36.17;;;18.58;;
69502;SDS011;56704;54.242;12.442;2023-03-19T04:38:11;37.97;;;20.65;;
69502;SDS011;56704;54.242;12.442;2023-03-19T04:40:38;38.22;;;17.92;;
69502;SDS011;56704;54.242;12.442;2023-03-19T04:43:04;39.22;;;20.95;;
69502;SDS011;56704;54.242;12.442;2023-03-19T04:45:32;36.37;;;19.27;;
69502;SDS011;56704;54.242;12.442;2023-03-19T04:47:59;37.15;;;18.90;;
69502;SDS011;56704;54.242;12.442;2023-03-19T04:50:26;37.75;;;19.33;;
69502;SDS011;56704;54.242;12.442;2023-03-19T04:52:53;36.33;;;18.83;;
69502;SDS011;56704;54.242;12.442;2023-03-19T04:55:19;29.85;;;16.27;;
69502;SDS011;56704;54.242;12.442;2023-03-19T04:57:46;38.43;;;20.97;;
69502;SDS011;56704;54.242;12.442;2023-03-19T05:00:13;38.75;;;18.63;;
69502;SDS011;56704;54.242;12.442;2023-03-19T05:02:43;32.60;;;17.23;;
69502;SDS011;56704;54.242;12.442;2023-03-19T05:05:09;30.08;;;16.95;;
69502;SDS011;56704;54.242;12.442;2023-03-19T05:07:36;35.00;;;18.70;;
69502;SDS011;56704;54.242;12.442;2023-03-19T05:10:03;35.57;;;16.43;;
69502;SDS011;56704;54.242;12.442;2023-03-19T05:12:30;35.03;;;18.13;;
69502;SDS011;56704;54.242;12.442;2023-03-19T05:14:57;40.00;;;21.52;;
69502;SDS011;56704;54.242;12.442;2023-03-19T05:17:23;33.78;;;17.77;;
69502;SDS011;56704;54.242;12.442;2023-03-19T05:19:51;40.42;;;19.65;;
69502;SDS011;56704;54.242;12.442;2023-03-19T05:22:18;35.70;;;19.27;;
69502;SDS011;56704;54.242;12.442;2023-03-19T05:24:45;35.13;;;18.15;;
69502;SDS011;56704;54.242;12.442;2023-03-19T05:27:12;38.30;;;20.40;;
69502;SDS011;56704;54.242;12.442;2023-03-19T05:29:38;39.72;;;20.88;;
69502;SDS011;56704;54.242;12.442;2023-03-19T05:32:06;40.83;;;22.08;;
69502;SDS011;56704;54.242;12.442;2023-03-19T05:34:34;43.20;;;21.83;;
69502;SDS011;56704;54.242;12.442;2023-03-19T05:37:02;41.45;;;20.48;;
69502;SDS011;56704;54.242;12.442;2023-03-19T05:39:29;46.10;;;24.48;;
69502;SDS011;56704;54.242;12.442;2023-03-19T05:41:56;43.15;;;22.50;;
69502;SDS011;56704;54.242;12.442;2023-03-19T05:44:22;42.97;;;22.75;;
69502;SDS011;56704;54.242;12.442;2023-03-19T05:46:49;40.13;;;22.13;;
69502;SDS011;56704;54.242;12.442;2023-03-19T05:49:16;42.47;;;22.13;;
69502;SDS011;56704;54.242;12.442;2023-03-19T05:51:43;47.15;;;22.33;;
69502;SDS011;56704;54.242;12.442;2023-03-19T05:54:11;37.40;;;19.83;;
69502;SDS011;56704;54.242;12.442;2023-03-19T05:56:37;44.15;;;23.00;;
69502;SDS011;56704;54.242;12.442;2023-03-19T05:59:04;32.70;;;18.33;;
69502;SDS011;56704;54.242;12.442;2023-03-19T06:01:31;41.45;;;20.40;;
69502;SDS011;56704;54.242;12.442;2023-03-19T06:03:57;35.92;;;18.92;;
69502;SDS011;56704;54.242;12.442;2023-03-19T06:06:24;45.20;;;23.30;;
69502;SDS011;56704;54.242;12.442;2023-03-19T06:08:51;48.08;;;23.52;;
69502;SDS011;56704;54.242;12.442;2023-03-19T06:11:18;43.83;;;22.20;;
69502;SDS011;56704;54.242;12.442;2023-03-19T06:13:45;46.63;;;22.45;;
69502;SDS011;56704;54.242;12.442;2023-03-19T06:16:12;44.88;;;22.70;;
69502;SDS011;56704;54.242;12.442;2023-03-19T06:18:38;40.80;;;21.75;;
69502;SDS011;56704;54.242;12.442;2023-03-19T06:21:05;43.28;;;22.42;;
69502;SDS011;56704;54.242;12.442;2023-03-19T06:23:32;39.50;;;19.83;;
69502;SDS011;56704;54.242;12.442;2023-03-19T06:25:58;38.38;;;20.63;;
69502;SDS011;56704;54.242;12.442;2023-03-19T06:28:26;37.00;;;19.85;;
69502;SDS011;56704;54.242;12.442;2023-03-19T06:30:53;38.78;;;20.35;;
69502;SDS011;56704;54.242;12.442;2023-03-19T06:33:20;34.72;;;19.55;;
69502;SDS011;56704;54.242;12.442;2023-03-19T06:35:51;34.00;;;17.43;;
69502;SDS011;56704;54.242;12.442;2023-03-19T06:38:18;37.60;;;20.20;;
69502;SDS011;56704;54.242;12.442;2023-03-19T06:40:45;37.22;;;18.65;;
69502;SDS011;56704;54.242;12.442;2023-03-19T06:43:12;43.85;;;23.33;;
69502;SDS011;56704;54.242;12.442;2023-03-19T06:45:40;45.30;;;21.88;;
69502;SDS011;56704;54.242;12.442;2023-03-19T06:48:06;41.97;;;18.80;;
69502;SDS011;56704;54.242;12.442;2023-03-19T06:50:33;30.25;;;16.27;;
69502;SDS011;56704;54.242;12.442;2023-03-19T06:52:59;40.97;;;21.52;;
69502;SDS011;56704;54.242;12.442;2023-03-19T06:55:26;41.13;;;20.83;;
69502;SDS011;56704;54.242;12.442;2023-03-19T06:57:55;41.03;;;22.38;;
69502;SDS011;56704;54.242;12.442;2023-03-19T07:00:22;42.63;;;22.13;;
69502;SDS011;56704;54.242;12.442;2023-03-19T07:02:50;42.67;;;20.52;;
69502;SDS011;56704;54.242;12.442;2023-03-19T07:05:17;40.38;;;21.58;;
69502;SDS011;56704;54.242;12.442;2023-03-19T07:07:43;42.70;;;22.02;;
69502;SDS011;56704;54.242;12.442;2023-03-19T07:10:10;44.00;;;23.33;;
69502;SDS011;56704;54.242;12.442;2023-03-19T07:12:37;46.80;;;23.23;;
69502;SDS011;56704;54.242;12.442;2023-03-19T07:15:03;43.55;;;22.45;;
69502;SDS011;56704;54.242;12.442;2023-03-19T07:17:31;44.78;;;24.02;;
69502;SDS011;56704;54.242;12.442;2023-03-19T07:19:59;41.58;;;20.40;;
69502;SDS011;56704;54.242;12.442;2023-03-19T07:22:25;42.08;;;20.05;;
69502;SDS011;56704;54.242;12.442;2023-03-19T07:24:52;46.57;;;24.33;;
69502;SDS011;56704;54.242;12.442;2023-03-19T07:27:19;39.65;;;19.30;;
69502;SDS011;56704;54.242;12.442;2023-03-19T07:29:46;42.15;;;22.75;;
69502;SDS011;56704;54.242;12.442;2023-03-19T07:32:12;36.22;;;18.20;;
69502;SDS011;56704;54.242;12.442;2023-03-19T07:34:39;39.15;;;20.63;;
69502;SDS011;56704;54.242;12.442;2023-03-19T07:37:07;39.23;;;21.60;;
69502;SDS011;56704;54.242;12.442;2023-03-19T07:39:33;41.97;;;20.98;;
69502;SDS011;56704;54.242;12.442;2023-03-19T07:42:00;47.47;;;24.55;;
69502;SDS011;56704;54.242;12.442;2023-03-19T07:44:27;34.00;;;17.60;;
69502;SDS011;56704;54.242;12.442;2023-03-19T07:46:53;40.20;;;19.90;;
69502;SDS011;56704;54.242;12.442;2023-03-19T07:49:20;39.70;;;22.03;;
69502;SDS011;56704;54.242;12.442;2023-03-19T07:51:47;36.85;;;21.00;;
69502;SDS011;56704;54.242;12.442;2023-03-19T07:54:15;33.55;;;18.02;;
69502;SDS011;56704;54.242;12.442;2023-03-19T07:56:42;38.15;;;20.08;;
69502;SDS011;56704;54.242;12.442;2023-03-19T07:59:09;37.05;;;18.60;;
69502;SDS011;56704;54.242;12.442;2023-03-19T08:01:36;26.37;;;12.93;;
69502;SDS011;56704;54.242;12.442;2023-03-19T08:04:02;32.42;;;16.40;;
69502;SDS011;56704;54.242;12.442;2023-03-19T08:06:29;26.55;;;13.40;;
69502;SDS011;56704;54.242;12.442;2023-03-19T08:08:55;39.38;;;20.05;;
69502;SDS011;56704;54.242;12.442;2023-03-19T08:11:23;30.63;;;15.18;;
69502;SDS011;56704;54.242;12.442;2023-03-19T08:13:50;27.57;;;14.60;;
69502;SDS011;56704;54.242;12.442;2023-03-19T08:16:17;31.02;;;16.35;;
69502;SDS011;56704;54.242;12.442;2023-03-19T08:18:43;27.38;;;16.05;;
69502;SDS011;56704;54.242;12.442;2023-03-19T08:21:10;30.33;;;15.90;;
69502;SDS011;56704;54.242;12.442;2023-03-19T08:23:36;29.98;;;17.33;;
69502;SDS011;56704;54.242;12.442;2023-03-19T08:26:03;23.00;;;12.07;;
69502;SDS011;56704;54.242;12.442;2023-03-19T08:28:31;30.63;;;18.10;;
69502;SDS011;56704;54.242;12.442;2023-03-19T08:31:04;29.80;;;13.77;;
69502;SDS011;56704;54.242;12.442;2023-03-19T08:33:31;28.70;;;16.85;;
69502;SDS011;56704;54.242;12.442;2023-03-19T08:36:02;24.50;;;14.38;;
69502;SDS011;56704;54.242;12.442;2023-03-19T08:38:31;24.47;;;14.77;;
69502;SDS011;56704;54.242;12.442;2023-03-19T08:40:57;23.02;;;12.48;;
69502;SDS011;56704;54.242;12.442;2023-03-19T08:43:26;24.60;;;14.38;;
69502;SDS011;56704;54.242;12.442;2023-03-19T08:45:54;22.48;;;11.90;;
69502;SDS011;56704;54.242;12.442;2023-03-19T08:48:21;23.13;;;12.65;;
69502;SDS011;56704;54.242;12.442;2023-03-19T08:50:51;20.10;;;11.50;;
69502;SDS011;56704;54.242;12.442;2023-03-19T08:53:18;21.25;;;11.85;;
69502;SDS011;56704;54.242;12.442;2023-03-19T08:55:49;17.70;;;10.77;;
69502;SDS011;56704;54.242;12.442;2023-03-19T08:58:16;16.13;;;10.63;;
69502;SDS011;56704;54.242;12.442;2023-03-19T09:00:43;14.13;;;7.13;;
69502;SDS011;56704;54.242;12.442;2023-03-19T09:03:11;12.00;;;6.40;;
69502;SDS011;56704;54.242;12.442;2023-03-19T09:05:38;14.85;;;8.52;;
69502;SDS011;56704;54.242;12.442;2023-03-19T09:08:05;13.23;;;8.23;;
69502;SDS011;56704;54.242;12.442;2023-03-19T09:10:32;14.20;;;8.70;;
69502;SDS011;56704;54.242;12.442;2023-03-19T09:12:58;12.63;;;7.53;;
69502;SDS011;56704;54.242;12.442;2023-03-19T09:15:25;10.67;;;6.63;;
69502;SDS011;56704;54.242;12.442;2023-03-19T09:17:52;11.48;;;6.57;;
69502;SDS011;56704;54.242;12.442;2023-03-19T09:20:20;11.13;;;5.88;;
69502;SDS011;56704;54.242;12.442;2023-03-19T09:22:46;10.82;;;6.25;;
69502;SDS011;56704;54.242;12.442;2023-03-19T09:25:13;11.27;;;6.43;;
69502;SDS011;56704;54.242;12.442;2023-03-19T09:27:40;11.13;;;6.53;;
69502;SDS011;56704;54.242;12.442;2023-03-19T09:30:07;10.55;;;5.95;;
69502;SDS011;56704;54.242;12.442;2023-03-19T09:32:34;12.80;;;6.97;;
69502;SDS011;56704;54.242;12.442;2023-03-19T09:35:01;12.05;;;7.50;;
69502;SDS011;56704;54.242;12.442;2023-03-19T09:37:29;11.68;;;6.35;;
69502;SDS011;56704;54.242;12.442;2023-03-19T09:39:56;8.67;;;5.30;;
69502;SDS011;56704;54.242;12.442;2023-03-19T09:42:26;8.13;;;4.65;;
69502;SDS011;56704;54.242;12.442;2023-03-19T09:45:03;7.65;;;4.70;;
69502;SDS011;56704;54.242;12.442;2023-03-19T09:47:35;7.45;;;4.45;;
69502;SDS011;56704;54.242;12.442;2023-03-19T09:50:04;7.70;;;4.13;;
69502;SDS011;56704;54.242;12.442;2023-03-19T09:52:39;7.23;;;3.30;;
69502;SDS011;56704;54.242;12.442;2023-03-19T09:55:11;6.55;;;3.70;;
69502;SDS011;56704;54.242;12.442;2023-03-19T09:57:45;7.28;;;2.80;;
69502;SDS011;56704;54.242;12.442;2023-03-19T10:00:18;5.47;;;2.65;;
69502;SDS011;56704;54.242;12.442;2023-03-19T10:02:46;4.70;;;2.60;;
69502;SDS011;56704;54.242;12.442;2023-03-19T10:05:20;3.97;;;2.00;;
69502;SDS011;56704;54.242;12.442;2023-03-19T10:08:00;5.88;;;1.90;;
69502;SDS011;56704;54.242;12.442;2023-03-19T10:10:44;3.63;;;1.63;;
69502;SDS011;56704;54.242;12.442;2023-03-19T10:13:17;3.85;;;2.30;;
69502;SDS011;56704;54.242;12.442;2023-03-19T10:15:55;6.35;;;3.35;;
69502;SDS011;56704;54.242;12.442;2023-03-19T10:18:23;3.73;;;1.90;;
69502;SDS011;56704;54.242;12.442;2023-03-19T10:20:53;5.07;;;2.00;;
69502;SDS011;56704;54.242;12.442;2023-03-19T10:23:36;4.40;;;2.35;;
69502;SDS011;56704;54.242;12.442;2023-03-19T10:26:08;3.67;;;1.63;;
69502;SDS011;56704;54.242;12.442;2023-03-19T10:28:37;3.70;;;1.80;;
69502;SDS011;56704;54.242;12.442;2023-03-19T10:31:11;4.43;;;1.70;;
69502;SDS011;56704;54.242;12.442;2023-03-19T10:33:50;3.45;;;1.52;;
69502;SDS011;56704;54.242;12.442;2023-03-19T10:36:23;3.45;;;1.40;;
69502;SDS011;56704;54.242;12.442;2023-03-19T10:38:57;2.97;;;0.85;;
69502;SDS011;56704;54.242;12.442;2023-03-19T10:41:26;3.75;;;1.50;;
69502;SDS011;56704;54.242;12.442;2023-03-19T10:44:00;3.23;;;1.50;;
69502;SDS011;56704;54.242;12.442;2023-03-19T10:46:35;3.40;;;1.40;;
69502;SDS011;56704;54.242;12.442;2023-03-19T10:49:02;4.47;;;1.30;;
69502;SDS011;56704;54.242;12.442;2023-03-19T10:51:29;3.20;;;1.70;;
69502;SDS011;56704;54.242;12.442;2023-03-19T10:53:59;3.40;;;1.60;;
69502;SDS011;56704;54.242;12.442;2023-03-19T10:56:26;3.50;;;0.97;;
69502;SDS011;56704;54.242;12.442;2023-03-19T10:58:55;3.28;;;1.33;;
69502;SDS011;56704;54.242;12.442;2023-03-19T11:01:25;3.20;;;1.40;;
69502;SDS011;56704;54.242;12.442;2023-03-19T11:03:54;3.25;;;1.55;;
69502;SDS011;56704;54.242;12.442;2023-03-19T11:06:23;3.10;;;0.95;;
69502;SDS011;56704;54.242;12.442;2023-03-19T11:08:54;4.73;;;1.60;;
69502;SDS011;56704;54.242;12.442;2023-03-19T11:11:24;2.92;;;1.40;;
69502;SDS011;56704;54.242;12.442;2023-03-19T11:13:52;3.10;;;1.50;;
69502;SDS011;56704;54.242;12.442;2023-03-19T11:16:19;3.08;;;1.40;;
69502;SDS011;56704;54.242;12.442;2023-03-19T11:18:46;4.13;;;2.10;;
69502;SDS011;56704;54.242;12.442;2023-03-19T11:21:21;3.23;;;1.40;;
69502;SDS011;56704;54.242;12.442;2023-03-19T11:23:58;3.40;;;1.65;;
69502;SDS011;56704;54.242;12.442;2023-03-19T11:26:28;3.00;;;1.73;;
69502;SDS011;56704;54.242;12.442;2023-03-19T11:29:00;3.13;;;1.45;;
69502;SDS011;56704;54.242;12.442;2023-03-19T11:31:29;4.53;;;1.58;;
69502;SDS011;56704;54.242;12.442;2023-03-19T11:34:07;4.10;;;1.80;;
69502;SDS011;56704;54.242;12.442;2023-03-19T11:36:43;3.58;;;1.17;;
69502;SDS011;56704;54.242;12.442;2023-03-19T11:39:20;3.42;;;1.83;;
69502;SDS011;56704;54.242;12.442;2023-03-19T11:41:57;3.20;;;1.40;;
69502;SDS011;56704;54.242;12.442;2023-03-19T11:44:37;3.92;;;1.70;;
69502;SDS011;56704;54.242;12.442;2023-03-19T11:47:10;3.23;;;1.70;;
69502;SDS011;56704;54.242;12.442;2023-03-19T11:49:49;3.92;;;2.00;;
69502;SDS011;56704;54.242;12.442;2023-03-19T11:52:27;3.17;;;1.70;;
69502;SDS011;56704;54.242;12.442;2023-03-19T11:55:02;3.92;;;1.80;;
69502;SDS011;56704;54.242;12.442;2023-03-19T12:00:45;4.67;;;2.00;;
69502;SDS011;56704;54.242;12.442;2023-03-19T12:06:11;3.30;;;1.80;;
69502;SDS011;56704;54.242;12.442;2023-03-19T12:08:47;3.63;;;1.50;;
69502;SDS011;56704;54.242;12.442;2023-03-19T12:11:21;2.90;;;1.20;;
69502;SDS011;56704;54.242;12.442;2023-03-19T12:13:57;2.70;;;1.20;;
69502;SDS011;56704;54.242;12.442;2023-03-19T12:16:46;5.50;;;1.45;;
69502;SDS011;56704;54.242;12.442;2023-03-19T12:19:26;3.72;;;1.80;;
69502;SDS011;56704;54.242;12.442;2023-03-19T12:22:11;3.83;;;1.38;;
69502;SDS011;56704;54.242;12.442;2023-03-19T12:24:51;3.85;;;1.60;;
69502;SDS011;56704;54.242;12.442;2023-03-19T12:27:30;3.63;;;1.73;;
69502;SDS011;56704;54.242;12.442;2023-03-19T12:30:02;2.58;;;1.10;;
69502;SDS011;56704;54.242;12.442;2023-03-19T12:32:45;3.53;;;1.52;;
69502;SDS011;56704;54.242;12.442;2023-03-19T12:35:25;5.90;;;1.77;;
69502;SDS011;56704;54.242;12.442;2023-03-19T12:37:57;4.30;;;1.30;;
69502;SDS011;56704;54.242;12.442;2023-03-19T12:40:27;2.60;;;0.93;;
69502;SDS011;56704;54.242;12.442;2023-03-19T12:42:57;4.95;;;1.27;;
69502;SDS011;56704;54.242;12.442;2023-03-19T12:45:28;5.63;;;1.90;;
69502;SDS011;56704;54.242;12.442;2023-03-19T12:47:59;5.57;;;2.50;;
69502;SDS011;56704;54.242;12.442;2023-03-19T12:50:31;4.63;;;2.00;;
69502;SDS011;56704;54.242;12.442;2023-03-19T12:53:03;4.80;;;2.00;;
69502;SDS011;56704;54.242;12.442;2023-03-19T12:55:34;5.38;;;2.22;;
69502;SDS011;56704;54.242;12.442;2023-03-19T12:58:05;4.80;;;2.42;;
69502;SDS011;56704;54.242;12.442;2023-03-19T13:00:41;5.38;;;2.22;;
69502;SDS011;56704;54.242;12.442;2023-03-19T13:03:14;5.03;;;2.35;;
69502;SDS011;56704;54.242;12.442;2023-03-19T13:05:46;5.27;;;2.60;;
69502;SDS011;56704;54.242;12.442;2023-03-19T13:08:22;4.00;;;2.17;;
69502;SDS011;56704;54.242;12.442;2023-03-19T13:10:54;4.78;;;2.33;;
69502;SDS011;56704;54.242;12.442;2023-03-19T13:13:26;4.53;;;2.60;;
69502;SDS011;56704;54.242;12.442;2023-03-19T13:16:02;5.85;;;2.58;;
69502;SDS011;56704;54.242;12.442;2023-03-19T13:18:48;5.67;;;2.60;;
69502;SDS011;56704;54.242;12.442;2023-03-19T13:21:23;5.82;;;3.03;;
69502;SDS011;56704;54.242;12.442;2023-03-19T13:23:58;5.07;;;2.90;;
69502;SDS011;56704;54.242;12.442;2023-03-19T13:26:29;4.70;;;2.72;;
69502;SDS011;56704;54.242;12.442;2023-03-19T13:28:59;4.95;;;3.20;;
69502;SDS011;56704;54.242;12.442;2023-03-19T13:31:32;6.33;;;3.60;;
69502;SDS011;56704;54.242;12.442;2023-03-19T13:34:00;5.55;;;3.17;;
69502;SDS011;56704;54.242;12.442;2023-03-19T13:36:29;5.47;;;3.17;;
69502;SDS011;56704;54.242;12.442;2023-03-19T13:39:00;5.63;;;3.58;;
69502;SDS011;56704;54.242;12.442;2023-03-19T13:41:46;5.00;;;2.78;;
69502;SDS011;56704;54.242;12.442;2023-03-19T13:44:23;5.30;;;3.40;;
69502;SDS011;56704;54.242;12.442;2023-03-19T13:47:00;5.20;;;3.30;;
69502;SDS011;56704;54.242;12.442;2023-03-19T13:49:30;6.15;;;3.45;;
69502;SDS011;56704;54.242;12.442;2023-03-19T13:55:32;6.28;;;3.22;;
69502;SDS011;56704;54.242;12.442;2023-03-19T13:58:14;7.73;;;3.63;;
69502;SDS011;56704;54.242;12.442;2023-03-19T14:00:59;5.50;;;3.40;;
69502;SDS011;56704;54.242;12.442;2023-03-19T14:03:30;6.32;;;3.70;;
69502;SDS011;56704;54.242;12.442;2023-03-19T14:05:59;6.75;;;4.10;;
69502;SDS011;56704;54.242;12.442;2023-03-19T14:08:27;5.43;;;3.58;;
69502;SDS011;56704;54.242;12.442;2023-03-19T14:10:57;6.50;;;3.30;;
69502;SDS011;56704;54.242;12.442;2023-03-19T14:13:27;5.78;;;3.60;;
69502;SDS011;56704;54.242;12.442;2023-03-19T14:16:03;6.38;;;3.90;;
69502;SDS011;56704;54.242;12.442;2023-03-19T14:18:41;6.85;;;3.85;;
69502;SDS011;56704;54.242;12.442;2023-03-19T14:21:09;6.50;;;3.90;;
69502;SDS011;56704;54.242;12.442;2023-03-19T14:23:39;6.17;;;3.70;;
69502;SDS011;56704;54.242;12.442;2023-03-19T14:26:15;7.63;;;4.10;;
69502;SDS011;56704;54.242;12.442;2023-03-19T14:28:45;7.78;;;3.88;;
69502;SDS011;56704;54.242;12.442;2023-03-19T14:31:18;7.15;;;4.05;;
69502;SDS011;56704;54.242;12.442;2023-03-19T14:33:51;7.18;;;4.13;;
69502;SDS011;56704;54.242;12.442;2023-03-19T14:36:23;7.13;;;3.93;;
69502;SDS011;56704;54.242;12.442;2023-03-19T14:38:51;8.20;;;4.70;;
69502;SDS011;56704;54.242;12.442;2023-03-19T14:41:21;7.53;;;4.50;;
69502;SDS011;56704;54.242;12.442;2023-03-19T14:44:07;10.38;;;5.80;;